Impacts METAR Board
IDs:

KGPT - Gulfport-Biloxi Intl, MS, US

Updated at: 0600 UTC 22 Jan 2021
Potential Impact None Slight Moderate High
Time 21/18Z 21/19Z 21/20Z 21/21Z 21/22Z 21/23Z 22/00Z 22/01Z 22/02Z 22/03Z 22/04Z 22/05Z 22/06Z
Temp67 69 68 68 69 66 64 63 64 63 64 64 64
Dewpt58 59 59 59 60 59 58 58 60 60 60 61 61
Altim30.05 30.02 30.00 29.98 29.96 29.97 29.96 29.95 29.95 29.93 29.93 29.93 29.91
VIS10 10 10 10 10 10 10 10 10 10 10 10 10
CIG-- 80 80 80 85 60 65 70 90 70 80 7 7
CoverSCTBKNOVCOVCOVCOVCOVCOVCOVCOVCOVCOVCOVC
FltCatVFRVFRVFRVFRVFRVFRVFRVFRVFRVFRVFRIFRIFR
WX--------------------------
WDir23023023022001801800002302300
WSpd7 10 8 5 3 3 3 0 4 6 5 7 5
WGst-- 19 -- -- -- -- -- -- -- -- -- -- --
Raw hourly METARs
KGPT 211753Z 23007KT 190V260 10SM SCT022 19/14 A3005 RMK AO2 SLP176 60000 T01940144 10194 20150 58020
KGPT 211853Z 23010G19KT 10SM BKN080 21/15 A3002 RMK AO2 SLP163 T02060150
KGPT 211953Z 23008KT 10SM OVC080 20/15 A3000 RMK AO2 SLP158 T02000150
KGPT 212053Z 22005KT 10SM OVC080 20/15 A2998 RMK AO2 SLP150 T02000150 56026
KGPT 212153Z VRB03KT 10SM OVC085 21/16 A2996 RMK AO2 SLP146 T02060156
KGPT 212253Z 18003KT 10SM BKN060 BKN075 OVC090 19/15 A2997 RMK AO2 SLP147 T01890150
KGPT 212353Z 18003KT 10SM BKN065 OVC095 18/14 A2996 RMK AO2 SLP144 T01780144 10211 20178 56006
KGPT 220053Z 00000KT 10SM BKN070 OVC100 17/14 A2995 RMK AO2 SLP142 T01720144
KGPT 220153Z AUTO VRB04KT 10SM FEW070 OVC090 18/16 A2995 RMK AO2 SLP141 T01780156
KGPT 220253Z AUTO VRB06KT 10SM OVC070 17/16 A2993 RMK AO2 SLP136 T01720156 58008
KGPT 220353Z AUTO 23005KT 10SM BKN080 OVC095 18/16 A2993 RMK AO2 SLP133 T01780156
KGPT 220453Z AUTO 23007KT 190V260 10SM BKN007 OVC095 18/16 A2993 RMK AO2 SLP134 T01780161
KGPT 220553Z AUTO VRB05KT 10SM OVC007 18/16 A2991 RMK AO2 SLP128 T01780161 10183 20172 402110106 58005



Page loaded:  06:56 UTC  |   10:56 PM Pacific  |   11:56 PM Mountain  |   12:56 AM Central  |   01:56 AM Eastern

 

ADVISORIES

FORECASTS

FORECASTS

OBSERVATIONS

USER TOOLS

ABOUT US